createdAt,value
2022-09-27T00:01:34.136Z,15.30
2022-09-27T00:04:05.620Z,15.41
2022-09-27T00:06:40.636Z,15.42
2022-09-27T00:09:11.038Z,15.42
2022-09-27T00:11:43.191Z,15.45
2022-09-27T00:14:16.106Z,15.52
2022-09-27T00:16:46.977Z,15.59
2022-09-27T00:19:19.752Z,15.62
2022-09-27T00:21:50.572Z,15.65
2022-09-27T00:24:23.716Z,15.62
2022-09-27T00:26:54.216Z,15.63
2022-09-27T00:29:24.637Z,15.66
2022-09-27T00:31:55.061Z,15.60
2022-09-27T00:34:26.851Z,15.60
2022-09-27T00:36:57.394Z,15.66
2022-09-27T00:39:27.730Z,15.61
2022-09-27T00:41:58.101Z,15.64
2022-09-27T00:44:31.386Z,15.60
2022-09-27T00:47:10.478Z,15.63
2022-09-27T00:49:55.859Z,15.51
2022-09-27T00:52:29.803Z,15.60
2022-09-27T00:55:03.064Z,15.68
2022-09-27T00:57:34.702Z,15.65
2022-09-27T01:00:18.355Z,15.57
2022-09-27T01:02:52.320Z,15.57
2022-09-27T01:05:26.203Z,15.68
2022-09-27T01:07:56.867Z,15.72
2022-09-27T01:10:33.267Z,15.65
2022-09-27T01:13:09.482Z,15.65
2022-09-27T01:16:05.200Z,15.79
2022-09-27T01:18:44.725Z,15.67
2022-09-27T01:21:26.419Z,15.67
2022-09-27T01:24:14.475Z,15.89
2022-09-27T01:27:05.854Z,15.89
2022-09-27T01:30:07.578Z,15.89
2022-09-27T01:33:11.344Z,15.89
2022-09-27T01:35:51.084Z,15.74
2022-09-27T01:38:27.494Z,15.90
2022-09-27T01:41:06.713Z,15.96
2022-09-27T01:43:42.656Z,15.91
2022-09-27T01:46:15.961Z,15.81
2022-09-27T01:48:49.868Z,15.81
2022-09-27T01:51:31.972Z,15.61
2022-09-27T01:54:07.979Z,15.87
2022-09-27T01:56:47.617Z,15.83
2022-09-27T01:59:24.612Z,15.91
2022-09-27T02:01:57.917Z,15.83
2022-09-27T02:04:31.285Z,15.81
2022-09-27T02:07:04.809Z,15.81
2022-09-27T02:09:38.091Z,15.86
2022-09-27T02:12:11.760Z,15.86
2022-09-27T02:14:57.281Z,15.78
2022-09-27T02:17:43.640Z,15.83
2022-09-27T02:20:28.793Z,15.85
2022-09-27T02:23:04.709Z,15.92
2022-09-27T02:25:37.997Z,15.69
2022-09-27T02:28:11.839Z,15.87
2022-09-27T02:30:44.410Z,15.87
2022-09-27T02:33:15.742Z,15.90
2022-09-27T02:35:46.264Z,15.81
2022-09-27T02:38:17.013Z,15.82
2022-09-27T02:40:48.272Z,15.82
2022-09-27T02:43:21.611Z,15.82
2022-09-27T02:46:12.389Z,15.84
2022-09-27T02:49:05.021Z,15.84
2022-09-27T02:52:02.670Z,15.84
2022-09-27T02:54:52.337Z,15.88
2022-09-27T02:57:25.675Z,15.87
2022-09-27T02:59:58.871Z,15.87
2022-09-27T03:02:38.051Z,15.72
2022-09-27T03:05:11.611Z,15.78
2022-09-27T03:07:43.627Z,15.78
2022-09-27T03:10:23.351Z,15.81
2022-09-27T03:12:54.537Z,15.81
2022-09-27T03:15:24.861Z,15.75
2022-09-27T03:17:55.239Z,15.79
2022-09-27T03:20:25.605Z,15.86
2022-09-27T03:22:56.073Z,15.86
2022-09-27T03:25:26.500Z,15.64
2022-09-27T03:27:57.233Z,15.85
2022-09-27T03:30:27.991Z,15.88
2022-09-27T03:32:58.213Z,15.75
2022-09-27T03:35:28.729Z,15.75
2022-09-27T03:37:59.123Z,15.82
2022-09-27T03:40:29.632Z,15.81
2022-09-27T03:43:01.547Z,15.70
2022-09-27T03:45:32.989Z,15.82
2022-09-27T03:48:03.885Z,15.82
2022-09-27T03:50:34.258Z,15.86
2022-09-27T03:53:04.696Z,15.86
2022-09-27T03:55:35.631Z,15.79
2022-09-27T03:58:10.187Z,15.79
2022-09-27T04:00:40.737Z,15.88
2022-09-27T04:03:11.902Z,15.84
2022-09-27T04:05:42.923Z,15.84
2022-09-27T04:08:13.692Z,15.88
2022-09-27T04:10:45.058Z,15.85
2022-09-27T04:13:15.522Z,15.88
2022-09-27T04:15:51.407Z,15.86
2022-09-27T04:18:19.114Z,15.91
2022-09-27T04:20:49.950Z,15.86
2022-09-27T04:23:20.213Z,15.86
2022-09-27T04:25:51.241Z,15.86
2022-09-27T04:28:21.763Z,15.87
2022-09-27T04:30:52.274Z,15.94
2022-09-27T04:33:23.147Z,15.98
2022-09-27T04:35:53.604Z,16.06
2022-09-27T04:38:24.522Z,16.04
2022-09-27T04:40:54.965Z,16.02
2022-09-27T04:43:25.631Z,16.08
2022-09-27T04:45:56.371Z,16.14
2022-09-27T04:48:26.869Z,16.14
2022-09-27T04:50:59.516Z,16.17
2022-09-27T04:53:30.831Z,16.17
2022-09-27T04:56:01.851Z,16.15
2022-09-27T04:58:32.990Z,16.19
2022-09-27T05:01:04.386Z,16.19
2022-09-27T05:03:38.803Z,16.21
2022-09-27T05:06:09.039Z,16.14
2022-09-27T05:08:39.846Z,16.23
2022-09-27T05:11:10.293Z,16.07
2022-09-27T05:13:42.685Z,16.22
2022-09-27T05:16:13.872Z,16.22
2022-09-27T05:18:45.401Z,16.20
2022-09-27T05:21:17.642Z,16.33
2022-09-27T05:23:48.124Z,16.21
2022-09-27T05:26:18.747Z,16.32
2022-09-27T05:28:49.167Z,16.29
2022-09-27T05:31:19.633Z,16.40
2022-09-27T05:33:50.189Z,16.39
2022-09-27T05:36:22.929Z,16.39
2022-09-27T05:38:54.127Z,16.58
2022-09-27T05:41:24.623Z,16.58
2022-09-27T05:44:04.336Z,16.40
2022-09-27T05:46:37.505Z,16.30
2022-09-27T05:51:47.438Z,16.49
2022-09-27T05:54:20.540Z,16.51
2022-09-27T05:57:03.457Z,16.51
2022-09-27T05:59:36.306Z,16.59
2022-09-27T06:02:12.585Z,16.55
2022-09-27T06:04:44.983Z,16.53
2022-09-27T06:07:15.414Z,16.55
2022-09-27T06:09:47.013Z,16.55
2022-09-27T06:12:24.164Z,16.54
2022-09-27T06:14:56.896Z,16.56
2022-09-27T06:17:28.348Z,16.62
2022-09-27T06:20:03.407Z,16.57
2022-09-27T06:22:34.430Z,16.73
2022-09-27T06:25:05.926Z,16.73
2022-09-27T06:27:37.887Z,16.87
2022-09-27T06:30:11.373Z,16.82
2022-09-27T06:32:42.503Z,16.80
2022-09-27T06:35:12.810Z,16.76
2022-09-27T06:37:43.930Z,16.92
2022-09-27T06:40:14.422Z,16.92
2022-09-27T06:42:51.908Z,16.94
2022-09-27T06:45:22.194Z,16.94
2022-09-27T06:47:52.596Z,17.06
2022-09-27T06:50:23.047Z,17.15
2022-09-27T06:52:53.430Z,17.15
2022-09-27T06:55:23.772Z,17.07
2022-09-27T06:58:00.561Z,17.13
2022-09-27T07:00:31.295Z,17.13
2022-09-27T07:03:01.618Z,17.22
2022-09-27T07:05:32.220Z,17.18
2022-09-27T07:08:02.913Z,17.22
2022-09-27T07:10:38.273Z,17.22
2022-09-27T07:13:13.744Z,17.19
2022-09-27T07:15:47.240Z,17.19
2022-09-27T07:18:28.367Z,17.17
2022-09-27T07:21:03.169Z,17.17
2022-09-27T07:23:34.043Z,17.17
2022-09-27T07:26:05.800Z,17.26
2022-09-27T07:28:36.445Z,17.29
2022-09-27T07:31:07.224Z,17.37
2022-09-27T07:33:43.016Z,17.37
2022-09-27T07:36:13.092Z,17.37
2022-09-27T07:38:43.684Z,17.48
2022-09-27T07:41:18.329Z,17.68
2022-09-27T07:43:48.785Z,17.60
2022-09-27T07:46:19.480Z,17.60
2022-09-27T07:48:53.135Z,17.55
2022-09-27T07:51:23.918Z,17.55
2022-09-27T07:53:54.407Z,17.51
2022-09-27T07:56:28.184Z,17.54
2022-09-27T07:58:59.006Z,17.65
2022-09-27T08:01:29.608Z,17.65
2022-09-27T08:04:00.263Z,17.66
2022-09-27T08:06:30.758Z,17.84
2022-09-27T08:09:01.401Z,17.62
2022-09-27T08:11:32.181Z,17.82
2022-09-27T08:14:04.621Z,18.06
2022-09-27T08:16:38.443Z,18.06
2022-09-27T08:19:12.324Z,18.06
2022-09-27T08:21:42.930Z,17.98
2022-09-27T08:24:16.125Z,17.99
2022-09-27T08:26:48.751Z,17.99
2022-09-27T08:29:19.084Z,17.93
2022-09-27T08:31:51.621Z,17.93
2022-09-27T08:34:22.252Z,18.09
2022-09-27T08:36:52.713Z,18.21
2022-09-27T08:39:26.007Z,18.22
2022-09-27T08:42:08.444Z,18.22
2022-09-27T08:44:44.672Z,18.27
2022-09-27T08:47:37.668Z,18.32
2022-09-27T08:50:10.920Z,18.35
2022-09-27T08:52:55.164Z,18.36
2022-09-27T08:56:04.666Z,18.36
2022-09-27T08:58:46.724Z,18.30
2022-09-27T09:01:19.489Z,18.25
2022-09-27T09:03:59.042Z,18.34
2022-09-27T09:09:36.611Z,18.40
2022-09-27T09:12:34.428Z,18.40
2022-09-27T09:15:32.221Z,18.40
2022-09-27T09:18:29.056Z,18.44
2022-09-27T09:21:37.018Z,18.55
2022-09-27T09:24:12.796Z,18.54
2022-09-27T09:26:52.939Z,18.45
2022-09-27T09:29:37.987Z,18.46
2022-09-27T09:32:29.519Z,18.51
2022-09-27T09:35:02.790Z,18.51
2022-09-27T09:37:39.292Z,18.48
2022-09-27T09:40:18.147Z,18.48
2022-09-27T09:42:54.317Z,18.52
2022-09-27T09:45:30.239Z,18.57
2022-09-27T09:48:25.082Z,18.57
2022-09-27T09:50:58.544Z,18.60
2022-09-27T09:53:57.486Z,18.75
2022-09-27T09:56:43.269Z,18.88
2022-09-27T09:59:38.709Z,18.88
2022-09-27T10:02:29.656Z,19.00
2022-09-27T10:05:07.708Z,19.03
2022-09-27T10:07:39.195Z,19.07
2022-09-27T10:12:51.473Z,19.16
2022-09-27T10:15:24.759Z,19.07
2022-09-27T10:17:58.508Z,19.13
2022-09-27T10:20:38.056Z,19.13
2022-09-27T10:23:16.846Z,19.09
2022-09-27T10:25:53.453Z,19.03
2022-09-27T10:31:33.087Z,19.14
2022-09-27T10:34:05.298Z,19.16
2022-09-27T10:36:37.437Z,19.22
2022-09-27T10:39:09.374Z,19.30
2022-09-27T10:41:42.633Z,19.30
2022-09-27T10:44:24.588Z,19.44
2022-09-27T10:46:58.880Z,19.53
2022-09-27T10:49:38.661Z,19.53
2022-09-27T10:52:39.016Z,19.38
2022-09-27T10:55:14.912Z,19.34
2022-09-27T10:57:50.497Z,19.27
2022-09-27T11:00:23.599Z,19.27
2022-09-27T11:02:59.741Z,19.05
2022-09-27T11:05:36.090Z,19.04
2022-09-27T11:08:24.614Z,19.29
2022-09-27T11:11:17.407Z,19.29
2022-09-27T11:14:07.185Z,19.36
2022-09-27T11:16:46.969Z,19.36
2022-09-27T11:19:37.245Z,19.40
2022-09-27T11:22:31.785Z,19.26
2022-09-27T11:25:19.902Z,19.36
2022-09-27T11:28:01.793Z,19.31
2022-09-27T11:30:54.363Z,19.13
2022-09-27T11:33:46.823Z,19.42
2022-09-27T11:36:25.812Z,19.42
2022-09-27T11:39:08.517Z,19.58
2022-09-27T11:41:41.841Z,19.64
2022-09-27T11:44:27.138Z,19.64
2022-09-27T11:47:26.605Z,19.52
2022-09-27T11:50:16.381Z,19.54
2022-09-27T11:53:00.785Z,19.54
2022-09-27T11:55:50.806Z,19.57
2022-09-27T11:58:55.300Z,19.57
2022-09-27T12:01:46.010Z,19.52
2022-09-27T12:08:21.977Z,19.82
2022-09-27T12:11:15.000Z,19.80
2022-09-27T12:16:57.872Z,19.71
2022-09-27T12:19:37.018Z,19.71
2022-09-27T12:22:22.741Z,19.74
2022-09-27T12:24:53.028Z,19.69
2022-09-27T12:27:35.164Z,19.69
2022-09-27T12:30:06.586Z,19.42
2022-09-27T12:32:40.007Z,19.31
2022-09-27T12:35:31.245Z,19.30
2022-09-27T12:38:05.219Z,19.30
2022-09-27T12:40:42.528Z,19.28
2022-09-27T12:43:27.985Z,19.41
2022-09-27T12:46:26.859Z,19.34
2022-09-27T12:49:14.695Z,19.38
2022-09-27T12:52:06.006Z,19.41
2022-09-27T12:55:04.382Z,19.26
2022-09-27T12:57:58.890Z,19.26
2022-09-27T13:00:34.752Z,19.27
2022-09-27T13:03:26.640Z,19.24
2022-09-27T13:06:16.252Z,19.17
2022-09-27T13:09:07.470Z,19.17
2022-09-27T13:11:46.888Z,19.17
2022-09-27T13:14:40.501Z,19.21
2022-09-27T13:19:58.815Z,19.06
2022-09-27T13:22:38.042Z,19.16
2022-09-27T13:25:29.257Z,19.16
2022-09-27T13:27:59.630Z,19.20
2022-09-27T13:30:32.974Z,19.20
2022-09-27T13:33:18.196Z,19.13
2022-09-27T13:36:26.093Z,18.93
2022-09-27T13:39:05.028Z,18.93
2022-09-27T13:41:50.820Z,19.04
2022-09-27T13:44:36.087Z,19.04
2022-09-27T13:47:27.442Z,19.04
2022-09-27T13:50:24.611Z,18.94
2022-09-27T13:53:06.569Z,18.87
2022-09-27T13:55:46.099Z,18.87
2022-09-27T13:58:38.771Z,18.82
2022-09-27T14:01:30.269Z,18.82
2022-09-27T14:04:25.108Z,18.71
2022-09-27T14:07:01.641Z,18.85
2022-09-27T14:09:41.552Z,18.85
2022-09-27T14:12:14.897Z,18.85
2022-09-27T14:14:46.112Z,18.83
2022-09-27T14:17:16.842Z,18.83
2022-09-27T14:19:47.190Z,18.62
2022-09-27T14:22:23.338Z,18.41
2022-09-27T14:24:55.770Z,18.58
2022-09-27T14:27:30.091Z,18.58
2022-09-27T14:30:08.541Z,18.64
2022-09-27T14:32:49.142Z,18.53
2022-09-27T14:35:22.208Z,18.44
2022-09-27T14:37:56.667Z,18.44
2022-09-27T14:40:28.286Z,18.30
2022-09-27T14:43:00.383Z,18.30
2022-09-27T14:45:39.970Z,18.12
2022-09-27T14:48:31.695Z,18.05
2022-09-27T14:51:06.297Z,18.05
2022-09-27T14:53:58.158Z,18.10
2022-09-27T14:56:37.237Z,18.08
2022-09-27T14:59:19.585Z,18.09
2022-09-27T15:01:52.030Z,18.13
2022-09-27T15:04:25.244Z,18.13
2022-09-27T15:06:59.885Z,18.00
2022-09-27T15:09:33.473Z,18.00
2022-09-27T15:12:05.575Z,18.00
2022-09-27T15:14:36.996Z,17.99
2022-09-27T15:17:09.368Z,17.85
2022-09-27T15:19:40.175Z,17.85
2022-09-27T15:22:25.293Z,17.80
2022-09-27T15:24:58.665Z,17.71
2022-09-27T15:27:29.144Z,17.56
2022-09-27T15:30:00.210Z,17.56
2022-09-27T15:32:30.884Z,17.57
2022-09-27T15:35:08.204Z,17.57
2022-09-27T15:37:40.753Z,17.64
2022-09-27T15:40:20.363Z,17.64
2022-09-27T15:43:02.798Z,17.59
2022-09-27T15:45:35.652Z,17.59
2022-09-27T15:48:17.969Z,17.67
2022-09-27T15:50:50.306Z,17.75
2022-09-27T15:53:35.978Z,17.67
2022-09-27T15:56:07.115Z,17.74
2022-09-27T15:58:37.960Z,17.75
2022-09-27T16:01:09.953Z,17.75
2022-09-27T16:03:41.908Z,17.73
2022-09-27T16:06:14.544Z,17.73
2022-09-27T16:08:47.297Z,17.78
2022-09-27T16:11:18.361Z,17.77
2022-09-27T16:13:49.062Z,17.77
2022-09-27T16:16:22.029Z,17.84
2022-09-27T16:18:52.639Z,17.82
2022-09-27T16:21:24.295Z,17.79
2022-09-27T16:23:54.755Z,17.79
2022-09-27T16:26:25.090Z,17.79
2022-09-27T16:28:55.607Z,17.81
2022-09-27T16:31:26.116Z,17.81
2022-09-27T16:33:58.062Z,17.84
2022-09-27T16:36:28.373Z,17.85
2022-09-27T16:39:00.395Z,17.80
2022-09-27T16:41:31.336Z,17.80
2022-09-27T16:44:07.074Z,17.84
2022-09-27T16:46:42.956Z,17.84
2022-09-27T16:49:16.042Z,17.89
2022-09-27T16:51:48.717Z,17.87
2022-09-27T16:54:22.754Z,17.93
2022-09-27T16:56:55.235Z,17.99
2022-09-27T16:59:25.810Z,17.99
2022-09-27T17:02:00.890Z,18.07
2022-09-27T17:04:33.038Z,18.04
2022-09-27T17:07:04.244Z,18.05
2022-09-27T17:09:39.968Z,18.02
2022-09-27T17:12:16.185Z,17.99
2022-09-27T17:14:47.465Z,18.08
2022-09-27T17:17:17.918Z,18.08
2022-09-27T17:19:48.409Z,18.04
2022-09-27T17:22:19.187Z,18.03
2022-09-27T17:24:50.693Z,18.08
2022-09-27T17:27:25.183Z,18.09
2022-09-27T17:29:52.951Z,18.17
2022-09-27T17:32:23.530Z,18.07
2022-09-27T17:34:54.227Z,18.07
2022-09-27T17:37:25.858Z,18.12
2022-09-27T17:39:56.219Z,18.12
2022-09-27T17:42:26.591Z,18.07
2022-09-27T17:44:57.029Z,18.09
2022-09-27T17:47:28.682Z,18.13
2022-09-27T17:49:59.363Z,18.15
2022-09-27T17:52:31.464Z,18.13
2022-09-27T17:55:06.030Z,18.13
2022-09-27T17:57:37.510Z,18.10
2022-09-27T18:00:09.612Z,18.10
2022-09-27T18:02:41.214Z,18.11
2022-09-27T18:05:12.522Z,18.11
2022-09-27T18:07:44.683Z,18.09
2022-09-27T18:10:15.490Z,18.05
2022-09-27T18:12:48.127Z,18.12
2022-09-27T18:15:19.831Z,18.15
2022-09-27T18:17:55.805Z,18.10
2022-09-27T18:20:23.727Z,18.10
2022-09-27T18:22:54.465Z,18.05
2022-09-27T18:25:25.652Z,18.05
2022-09-27T18:27:56.286Z,18.07
2022-09-27T18:30:27.580Z,18.07
2022-09-27T18:32:58.898Z,18.03
2022-09-27T18:35:29.520Z,17.98
2022-09-27T18:38:00.586Z,17.95
2022-09-27T18:40:51.961Z,18.01
2022-09-27T18:43:12.910Z,18.01
2022-09-27T18:45:47.977Z,18.18
2022-09-27T18:48:19.354Z,18.13
2022-09-27T18:50:54.558Z,18.09
2022-09-27T18:53:25.374Z,18.09
2022-09-27T18:55:55.738Z,18.15
2022-09-27T18:58:26.309Z,18.15
2022-09-27T19:01:03.625Z,18.22
2022-09-27T19:03:35.251Z,18.22
2022-09-27T19:06:08.934Z,18.03
2022-09-27T19:08:39.843Z,18.14
2022-09-27T19:11:12.981Z,18.14
2022-09-27T19:13:52.991Z,18.16
2022-09-27T19:16:26.669Z,18.16
2022-09-27T19:18:57.971Z,18.19
2022-09-27T19:21:29.883Z,18.28
2022-09-27T19:24:00.558Z,18.24
2022-09-27T19:26:31.088Z,18.22
2022-09-27T19:29:02.358Z,18.15
2022-09-27T19:31:33.047Z,18.19
2022-09-27T19:34:04.342Z,18.19
2022-09-27T19:36:34.971Z,18.13
2022-09-27T19:39:05.428Z,18.18
2022-09-27T19:41:35.945Z,18.19
2022-09-27T19:44:06.451Z,18.10
2022-09-27T19:46:36.847Z,18.21
2022-09-27T19:49:07.671Z,18.08
2022-09-27T19:51:38.188Z,18.01
2022-09-27T19:54:10.277Z,18.01
2022-09-27T19:56:41.244Z,18.06
2022-09-27T19:59:12.034Z,18.02
2022-09-27T20:01:42.648Z,18.02
2022-09-27T20:04:13.547Z,17.96
2022-09-27T20:06:47.111Z,17.94
2022-09-27T20:09:22.058Z,17.84
2022-09-27T20:11:52.606Z,17.87
2022-09-27T20:14:26.360Z,17.91
2022-09-27T20:16:57.873Z,17.91
2022-09-27T20:19:28.365Z,17.92
2022-09-27T20:22:00.253Z,17.89
2022-09-27T20:24:32.483Z,17.98
2022-09-27T20:27:03.003Z,17.84
2022-09-27T20:29:33.655Z,17.93
2022-09-27T20:32:26.340Z,17.83
2022-09-27T20:34:37.100Z,17.87
2022-09-27T20:37:14.145Z,17.87
2022-09-27T20:39:47.540Z,17.83
2022-09-27T20:42:19.868Z,17.83
2022-09-27T20:44:54.539Z,17.82
2022-09-27T20:47:25.999Z,17.79
2022-09-27T20:49:58.421Z,17.71
2022-09-27T20:52:28.964Z,17.79
2022-09-27T20:54:59.469Z,17.80
2022-09-27T20:57:46.649Z,17.74
2022-09-27T21:00:11.584Z,17.74
2022-09-27T21:02:38.884Z,17.90
2022-09-27T21:05:13.096Z,17.92
2022-09-27T21:07:43.549Z,17.85
2022-09-27T21:10:14.593Z,17.85
2022-09-27T21:12:45.066Z,17.82
2022-09-27T21:15:16.625Z,17.86
2022-09-27T21:17:47.390Z,17.67
2022-09-27T21:20:20.760Z,17.78
2022-09-27T21:22:51.341Z,17.75
2022-09-27T21:25:21.853Z,17.78
2022-09-27T21:27:56.537Z,17.78
2022-09-27T21:30:34.278Z,17.92
2022-09-27T21:33:06.473Z,17.92
2022-09-27T21:35:37.143Z,17.83
2022-09-27T21:38:08.392Z,17.79
2022-09-27T21:40:40.204Z,17.86
2022-09-27T21:43:11.019Z,17.87
2022-09-27T21:45:41.341Z,17.87
2022-09-27T21:48:11.867Z,17.75
2022-09-27T21:50:42.340Z,17.82
2022-09-27T21:53:12.800Z,17.88
2022-09-27T21:55:43.212Z,17.82
2022-09-27T21:58:13.899Z,17.86
2022-09-27T22:00:44.208Z,17.83
2022-09-27T22:03:14.800Z,17.87
2022-09-27T22:05:49.836Z,17.77
2022-09-27T22:08:20.209Z,17.76
2022-09-27T22:10:51.880Z,17.91
2022-09-27T22:13:22.582Z,17.91
2022-09-27T22:15:54.071Z,17.86
2022-09-27T22:18:24.633Z,17.90
2022-09-27T22:21:03.969Z,17.83
2022-09-27T22:23:34.886Z,17.82
2022-09-27T22:26:14.176Z,17.73
2022-09-27T22:28:45.643Z,17.79
2022-09-27T22:31:17.306Z,17.84
2022-09-27T22:33:53.284Z,17.64
2022-09-27T22:36:24.396Z,17.82
2022-09-27T22:38:56.421Z,17.77
2022-09-27T22:41:27.226Z,17.77
2022-09-27T22:43:57.934Z,17.81
2022-09-27T22:46:31.049Z,17.66
2022-09-27T22:49:03.914Z,17.64
2022-09-27T22:51:37.342Z,17.60
2022-09-27T22:54:07.803Z,17.55
2022-09-27T22:56:39.709Z,17.51
2022-09-27T22:59:10.027Z,17.70
2022-09-27T23:01:40.424Z,17.70
2022-09-27T23:04:10.768Z,17.45
2022-09-27T23:06:41.132Z,17.59
2022-09-27T23:09:12.512Z,17.59
2022-09-27T23:11:43.934Z,17.59
2022-09-27T23:14:14.258Z,17.41
2022-09-27T23:16:44.703Z,17.34
2022-09-27T23:19:15.089Z,17.34
2022-09-27T23:21:45.536Z,17.51
2022-09-27T23:24:15.820Z,17.36
2022-09-27T23:26:46.291Z,17.60
2022-09-27T23:29:18.025Z,17.51
2022-09-27T23:31:49.411Z,17.48
2022-09-27T23:34:20.150Z,17.48
2022-09-27T23:36:50.503Z,17.49
2022-09-27T23:39:21.432Z,17.49
2022-09-27T23:41:51.945Z,17.49
2022-09-27T23:44:22.389Z,17.40
2022-09-27T23:46:55.493Z,17.40
2022-09-27T23:49:26.160Z,17.45
2022-09-27T23:51:56.569Z,17.56
2022-09-27T23:54:27.726Z,17.58
2022-09-27T23:56:58.972Z,17.58
2022-09-27T23:59:29.273Z,17.35
